Main page
METAR-TAF:

METAR-TAF

Airports :

Nakhchivan, Azerbaijan

Nakhchivan International Airport

latitude: 39-11-19N, longitude: 045-27-30E, elevation: 873 m

Current weather observation

The report was made 35 minutes ago, at 13:30 UTC
Wind 2 kt from the West/Southwest
Temperature 18°C
Humidity 37%
Pressure 1015 hPa
Visibility 10 km or more
Scattered clouds at a height of 10000 ft

METAR: UBBN 211330Z 24002KT 9999 SCT100 18/03 Q1015 R14R/CLRD// NOSIG RMK MT OP QFE686

Time: 18:05 (14:05 UTC)

Forecast

The report was made 3 hours and 5 minutes ago, at 11:00 UTC
Forecast valid from 21 at 12 UTC to 22 at 12 UTC
Wind 4 kt from variable directions
Visibility 10 km or more
Few clouds at a height of 5000 ft
Scattered clouds at a height of 10000 ft
Temporary
from 21 at 12 UTC to 21 at 15 UTC
Wind 10 kt from the West/Southwest
Temporary
from 21 at 16 UTC to 21 at 23 UTC
Wind 10 kt from the North/Northeast

TAF: UBBN 211100Z 2112/2212 VRB04KT 9999 FEW050 SCT100 TX20/2212Z TN03/2203Z TEMPO 2112/2115 24010KT TEMPO 2116/2123 02010KT

Weather observations and forecasts of more than 4000 airports (METAR and TAF reports).

The available stations are represented by yellow and red dots on the map.

Hover mouse over dot to see the name of the station.

Then click to see weather observations and forecasts.

To change the map : click on the green buttons with a black cross to zoom in, on the green button with a dash to zoom out, or on the green arrows for adjacent maps.


METAR-TAF: